Time;durP1;ratioP1;P1;durP2;ratioP2;P2;SDS_P1;SDS_P2;PMS_P1;PMS_P2;Temp;Humidity;BMP_temperature;BMP_pressure;BME280_temperature;BME280_humidity;BME280_pressure;Samples;Min_cycle;Max_cycle;Signal;HPM_P1;HPM_P2
2023/08/30 00:01:01;;;;;;;6.90;2.20;;;;;;;;;;4971942;28;92417;-84
2023/08/30 00:03:27;;;;;;;5.78;2.20;;;;;;;;;;4969929;28;93983;-83
2023/08/30 00:05:55;;;;;;;7.20;2.75;;;;;;;;;;4971273;28;92385;-84
2023/08/30 00:08:21;;;;;;;6.35;2.30;;;;;;;;;;4970219;28;92569;-84
2023/08/30 00:10:48;;;;;;;6.55;2.50;;;;;;;;;;4971357;28;96060;-84
2023/08/30 00:13:15;;;;;;;6.93;2.42;;;;;;;;;;4968721;28;95171;-84
2023/08/30 00:15:41;;;;;;;6.47;2.40;;;;;;;;;;4975064;28;93972;-84
2023/08/30 00:18:08;;;;;;;6.93;2.53;;;;;;;;;;4971774;28;96045;-84
2023/08/30 00:20:35;;;;;;;7.57;2.33;;;;;;;;;;4989964;28;92797;-84
2023/08/30 00:23:02;;;;;;;6.95;2.55;;;;;;;;;;4990131;28;94954;-83
2023/08/30 00:25:28;;;;;;;6.22;2.58;;;;;;;;;;4990087;28;93813;-84
2023/08/30 00:27:55;;;;;;;6.57;2.63;;;;;;;;;;4971562;28;92506;-83
2023/08/30 00:30:21;;;;;;;6.45;2.20;;;;;;;;;;4990994;28;93172;-83
2023/08/30 00:32:48;;;;;;;7.15;2.47;;;;;;;;;;4975043;28;94442;-84
2023/08/30 00:35:14;;;;;;;5.47;2.30;;;;;;;;;;4994322;28;93286;-83
2023/08/30 00:37:41;;;;;;;5.72;2.50;;;;;;;;;;4976340;28;97046;-84
2023/08/30 00:40:08;;;;;;;5.53;2.40;;;;;;;;;;4972640;28;92952;-83
2023/08/30 00:42:34;;;;;;;5.65;2.50;;;;;;;;;;4972525;28;93056;-84
2023/08/30 00:45:01;;;;;;;7.78;2.47;;;;;;;;;;4971391;28;95781;-83
2023/08/30 00:47:27;;;;;;;8.10;2.47;;;;;;;;;;4989812;28;92511;-83
2023/08/30 00:49:55;;;;;;;;;;;;;;;;;;4972599;28;95122;-83
2023/08/30 00:52:23;;;;;;;6.20;2.30;;;;;;;;;;4973656;28;92957;-84
2023/08/30 00:54:49;;;;;;;6.80;2.20;;;;;;;;;;4993230;28;91648;-84
2023/08/30 00:57:16;;;;;;;7.00;2.60;;;;;;;;;;4990338;28;93002;-84
2023/08/30 00:59:43;;;;;;;7.50;2.60;;;;;;;;;;4974953;28;92560;-84
2023/08/30 01:02:09;;;;;;;6.63;2.45;;;;;;;;;;4991559;28;94894;-85
2023/08/30 01:04:36;;;;;;;6.28;2.80;;;;;;;;;;4974955;28;96357;-84
2023/08/30 01:07:03;;;;;;;8.02;2.67;;;;;;;;;;4974997;28;92538;-84
2023/08/30 01:09:29;;;;;;;5.75;2.55;;;;;;;;;;4995584;28;92738;-85
2023/08/30 01:11:59;;;;;;;5.55;2.50;;;;;;;;;;4995638;28;93035;-85
2023/08/30 01:14:29;;;;;;;6.93;2.80;;;;;;;;;;4981714;28;92539;-84
2023/08/30 01:16:57;;;;;;;6.63;2.67;;;;;;;;;;4980576;28;96854;-85
2023/08/30 01:19:37;;;;;;;5.95;2.20;;;;;;;;;;4976216;28;91775;-84
2023/08/30 01:22:22;;;;;;;6.28;2.88;;;;;;;;;;4975367;28;93388;-84
2023/08/30 01:25:08;;;;;;;6.25;2.60;;;;;;;;;;4974597;28;93041;-84
2023/08/30 01:27:36;;;;;;;7.30;3.30;;;;;;;;;;4991105;28;95165;-84
2023/08/30 01:30:04;;;;;;;6.22;2.53;;;;;;;;;;4992916;28;95209;-85
2023/08/30 01:32:33;;;;;;;6.75;2.67;;;;;;;;;;4992845;28;92912;-84
2023/08/30 01:35:01;;;;;;;8.32;3.35;;;;;;;;;;4992761;28;92732;-84
2023/08/30 01:37:27;;;;;;;7.50;3.22;;;;;;;;;;4995540;28;92897;-84
2023/08/30 01:39:56;;;;;;;7.68;3.50;;;;;;;;;;4992564;28;92432;-84
2023/08/30 01:42:26;;;;;;;7.85;3.35;;;;;;;;;;4974548;28;94388;-84
2023/08/30 01:44:57;;;;;;;7.25;3.15;;;;;;;;;;4992386;28;92390;-82
2023/08/30 01:47:25;;;;;;;8.07;4.07;;;;;;;;;;4974237;28;92525;-84
2023/08/30 01:49:53;;;;;;;7.38;3.38;;;;;;;;;;4992373;28;93472;-83
2023/08/30 01:52:20;;;;;;;8.38;4.10;;;;;;;;;;4990498;28;95565;-84
2023/08/30 01:54:47;;;;;;;7.10;3.30;;;;;;;;;;4991559;28;92509;-81
2023/08/30 01:57:13;;;;;;;;;;;;;;;;;;4992611;28;92926;-83
2023/08/30 01:59:40;;;;;;;8.90;3.33;;;;;;;;;;4977898;28;110059;-83
2023/08/30 02:02:07;;;;;;;9.38;3.78;;;;;;;;;;4973239;28;95710;-83
2023/08/30 02:04:33;;;;;;;9.27;3.33;;;;;;;;;;4992232;28;93653;-83
2023/08/30 02:07:02;;;;;;;7.63;3.38;;;;;;;;;;4990887;28;92570;-82
2023/08/30 02:09:39;;;;;;;9.25;3.92;;;;;;;;;;4972745;28;95516;-83
2023/08/30 02:12:10;;;;;;;8.63;3.58;;;;;;;;;;4973191;28;95874;-81
2023/08/30 02:14:38;;;;;;;6.65;3.10;;;;;;;;;;4991549;28;92371;-81
2023/08/30 02:17:05;;;;;;;7.82;3.50;;;;;;;;;;4989475;28;94854;-83
2023/08/30 02:19:32;;;;;;;9.07;3.70;;;;;;;;;;4973038;28;95725;-81
2023/08/30 02:21:59;;;;;;;8.25;3.63;;;;;;;;;;4975636;28;92719;-83
2023/08/30 02:24:25;;;;;;;10.77;3.30;;;;;;;;;;4991332;28;93109;-82
2023/08/30 02:26:52;;;;;;;8.68;4.05;;;;;;;;;;4973762;28;92569;-84
2023/08/30 02:29:18;;;;;;;7.80;3.50;;;;;;;;;;4992139;28;93460;-83
2023/08/30 02:31:45;;;;;;;8.68;4.32;;;;;;;;;;4992186;28;93562;-84
2023/08/30 02:34:12;;;;;;;9.98;3.90;;;;;;;;;;4976044;28;92031;-86
2023/08/30 02:36:38;;;;;;;9.25;4.30;;;;;;;;;;4960180;28;96254;-85
2023/08/30 02:39:05;;;;;;;11.38;3.90;;;;;;;;;;4992462;28;93632;-85
2023/08/30 02:41:31;;;;;;;9.57;3.80;;;;;;;;;;4955791;28;95975;-85
2023/08/30 02:43:58;;;;;;;9.88;4.03;;;;;;;;;;4981001;28;98041;-85
2023/08/30 02:46:24;;;;;;;7.70;3.53;;;;;;;;;;4979669;28;92396;-85
2023/08/30 02:48:51;;;;;;;8.63;4.15;;;;;;;;;;4974131;28;92782;-86
2023/08/30 02:51:17;;;;;;;10.60;5.20;;;;;;;;;;4974075;28;93123;-86
2023/08/30 02:53:44;;;;;;;10.20;4.20;;;;;;;;;;4985190;28;93032;-85
2023/08/30 02:56:11;;;;;;;10.25;4.78;;;;;;;;;;4962714;28;94065;-85
2023/08/30 02:58:37;;;;;;;9.63;4.30;;;;;;;;;;4972500;28;95561;-84
2023/08/30 03:01:05;;;;;;;8.18;4.00;;;;;;;;;;4973058;28;92770;-84
2023/08/30 03:03:31;;;;;;;10.35;4.80;;;;;;;;;;4972844;28;93892;-84
2023/08/30 03:05:58;;;;;;;10.38;5.10;;;;;;;;;;4974496;28;95905;-83
2023/08/30 03:08:24;;;;;;;10.63;5.28;;;;;;;;;;4972917;28;96362;-85
2023/08/30 03:10:51;;;;;;;10.63;5.32;;;;;;;;;;4991858;28;92544;-86
2023/08/30 03:13:18;;;;;;;9.88;4.80;;;;;;;;;;4973866;28;92649;-84
2023/08/30 03:15:47;;;;;;;12.73;5.43;;;;;;;;;;4961385;28;95648;-83
2023/08/30 03:18:13;;;;;;;10.40;5.07;;;;;;;;;;4986348;28;93141;-81
2023/08/30 03:20:40;;;;;;;11.85;6.07;;;;;;;;;;4982674;28;93201;-82
2023/08/30 03:23:06;;;;;;;9.57;4.82;;;;;;;;;;5005570;28;92376;-84
2023/08/30 03:25:33;;;;;;;12.35;5.53;;;;;;;;;;4988335;28;95038;-83
2023/08/30 03:27:59;;;;;;;11.60;5.25;;;;;;;;;;5008935;28;92386;-83
2023/08/30 03:30:26;;;;;;;10.88;5.72;;;;;;;;;;4986546;28;97128;-81
2023/08/30 03:32:53;;;;;;;10.80;5.35;;;;;;;;;;5009004;28;92975;-82
2023/08/30 03:35:21;;;;;;;10.88;5.20;;;;;;;;;;4992778;28;94204;-83
2023/08/30 03:37:49;;;;;;;10.45;4.70;;;;;;;;;;4990571;28;94348;-82
2023/08/30 03:40:16;;;;;;;10.13;4.90;;;;;;;;;;5004166;28;93591;-82
2023/08/30 03:42:43;;;;;;;10.05;4.80;;;;;;;;;;4999237;28;92419;-84
2023/08/30 03:45:09;;;;;;;9.43;4.32;;;;;;;;;;4962438;28;95811;-84
2023/08/30 03:47:36;;;;;;;10.02;4.40;;;;;;;;;;4980613;28;91934;-84
2023/08/30 03:50:03;;;;;;;;;;;;;;;;;;4979422;28;92413;-83
2023/08/30 03:52:33;;;;;;;10.18;4.75;;;;;;;;;;4978344;28;92522;-82
2023/08/30 03:54:59;;;;;;;9.98;4.47;;;;;;;;;;4993437;28;94837;-83
2023/08/30 03:57:26;;;;;;;10.18;4.20;;;;;;;;;;4975033;28;94196;-83
2023/08/30 03:59:52;;;;;;;12.02;4.00;;;;;;;;;;4989927;28;92456;-81
2023/08/30 04:02:19;;;;;;;9.55;4.15;;;;;;;;;;4971769;28;95955;-81
2023/08/30 04:04:49;;;;;;;8.45;3.90;;;;;;;;;;4990017;28;93469;-83
2023/08/30 04:07:15;;;;;;;9.30;4.18;;;;;;;;;;4989963;28;92515;-85
2023/08/30 04:09:42;;;;;;;9.70;3.92;;;;;;;;;;4993199;28;92743;-81
2023/08/30 04:12:08;;;;;;;9.13;4.65;;;;;;;;;;4971663;28;91840;-83
2023/08/30 04:14:35;;;;;;;8.63;4.00;;;;;;;;;;4991051;28;92968;-82
2023/08/30 04:17:02;;;;;;;9.13;4.25;;;;;;;;;;4988596;28;94182;-82
2023/08/30 04:19:29;;;;;;;10.23;4.20;;;;;;;;;;4969258;28;94874;-81
2023/08/30 04:21:55;;;;;;;9.77;4.15;;;;;;;;;;4989304;28;95788;-82
2023/08/30 04:24:22;;;;;;;11.50;4.63;;;;;;;;;;4955058;28;95987;-82
2023/08/30 04:26:51;;;;;;;9.38;4.28;;;;;;;;;;4989570;28;92460;-81
2023/08/30 04:29:18;;;;;;;9.85;4.35;;;;;;;;;;4970421;28;94202;-82
2023/08/30 04:31:44;;;;;;;9.45;3.95;;;;;;;;;;4965004;28;96225;-80
2023/08/30 04:34:11;;;;;;;10.95;4.13;;;;;;;;;;4971198;28;95984;-81
2023/08/30 04:36:37;;;;;;;9.57;4.25;;;;;;;;;;4970829;28;95255;-81
2023/08/30 04:39:04;;;;;;;12.40;4.57;;;;;;;;;;4971171;28;92875;-80
2023/08/30 04:41:33;;;;;;;8.23;4.20;;;;;;;;;;4970892;28;96030;-82
2023/08/30 04:44:00;;;;;;;10.40;4.03;;;;;;;;;;4969282;28;98491;-82
2023/08/30 04:46:27;;;;;;;9.20;3.97;;;;;;;;;;4970679;28;92496;-82
2023/08/30 04:48:53;;;;;;;8.20;3.95;;;;;;;;;;4971222;28;95329;-83
2023/08/30 04:51:20;;;;;;;11.02;5.07;;;;;;;;;;4954894;28;95737;-85
2023/08/30 04:53:47;;;;;;;9.77;4.00;;;;;;;;;;4965368;28;92502;-82
2023/08/30 04:56:14;;;;;;;10.15;4.53;;;;;;;;;;4974886;28;95923;-84
2023/08/30 04:58:41;;;;;;;9.82;4.47;;;;;;;;;;4991525;28;92424;-84
2023/08/30 05:01:11;;;;;;;9.88;4.45;;;;;;;;;;4990196;28;92140;-81
2023/08/30 05:03:39;;;;;;;10.38;4.15;;;;;;;;;;4956935;28;95966;-83
2023/08/30 05:06:08;;;;;;;9.18;4.13;;;;;;;;;;4971696;28;93038;-82
2023/08/30 05:08:35;;;;;;;9.38;4.22;;;;;;;;;;4971562;28;95663;-83
2023/08/30 05:11:02;;;;;;;9.52;4.90;;;;;;;;;;4971046;28;95019;-83
2023/08/30 05:13:32;;;;;;;9.57;4.70;;;;;;;;;;4969834;28;92540;-83
2023/08/30 05:15:59;;;;;;;9.75;4.68;;;;;;;;;;4978978;28;92917;-81
2023/08/30 05:18:25;;;;;;;10.50;5.13;;;;;;;;;;4988776;28;92599;-83
2023/08/30 05:20:52;;;;;;;11.13;5.10;;;;;;;;;;4970221;28;95380;-82
2023/08/30 05:23:18;;;;;;;10.38;4.90;;;;;;;;;;4988735;28;93183;-84
2023/08/30 05:25:46;;;;;;;9.52;4.93;;;;;;;;;;4971097;28;93531;-81
2023/08/30 05:28:14;;;;;;;9.73;4.80;;;;;;;;;;4957974;28;95004;-82
2023/08/30 05:30:41;;;;;;;10.55;4.63;;;;;;;;;;4970901;28;95674;-84
2023/08/30 05:33:15;;;;;;;10.63;4.50;;;;;;;;;;4969081;28;94916;-83
2023/08/30 05:36:04;;;;;;;10.40;4.55;;;;;;;;;;4982876;28;95203;-82
2023/08/30 05:38:58;;;;;;;10.88;4.90;;;;;;;;;;4971036;28;93418;-81
2023/08/30 05:41:32;;;;;;;11.07;5.50;;;;;;;;;;4971264;28;94391;-83
2023/08/30 05:43:59;;;;;;;12.95;6.07;;;;;;;;;;4992826;28;93564;-81
2023/08/30 05:46:26;;;;;;;9.75;4.75;;;;;;;;;;4993575;28;92852;-81
2023/08/30 05:48:54;;;;;;;9.55;4.43;;;;;;;;;;4961847;28;95673;-82
2023/08/30 05:51:22;;;;;;;9.93;4.57;;;;;;;;;;4994501;28;92778;-81
2023/08/30 05:53:49;;;;;;;9.85;5.30;;;;;;;;;;4996275;28;92459;-82
2023/08/30 05:56:15;;;;;;;9.50;4.68;;;;;;;;;;4996317;28;93321;-83
2023/08/30 05:58:42;;;;;;;9.93;4.47;;;;;;;;;;4994935;28;95639;-84
2023/08/30 06:01:08;;;;;;;11.90;6.05;;;;;;;;;;4993398;28;95615;-84
2023/08/30 06:03:35;;;;;;;9.50;4.65;;;;;;;;;;4995668;28;93081;-84
2023/08/30 06:06:02;;;;;;;10.95;5.03;;;;;;;;;;4973990;28;92893;-85
2023/08/30 06:08:28;;;;;;;12.00;5.20;;;;;;;;;;4973145;28;95930;-84
2023/08/30 06:10:56;;;;;;;9.95;4.55;;;;;;;;;;4992083;28;93178;-84
2023/08/30 06:13:23;;;;;;;11.25;4.75;;;;;;;;;;4991593;28;92567;-83
2023/08/30 06:15:50;;;;;;;10.35;4.40;;;;;;;;;;4994337;28;93435;-84
2023/08/30 06:18:17;;;;;;;8.98;4.10;;;;;;;;;;4991882;28;93272;-84
2023/08/30 06:20:44;;;;;;;10.38;4.93;;;;;;;;;;4982595;28;92619;-83
2023/08/30 06:23:11;;;;;;;9.52;4.35;;;;;;;;;;4974532;28;95607;-84
2023/08/30 06:25:37;;;;;;;10.73;4.95;;;;;;;;;;4966631;28;92612;-84
2023/08/30 06:28:04;;;;;;;10.90;4.43;;;;;;;;;;4991485;28;94201;-83
2023/08/30 06:30:31;;;;;;;10.10;4.55;;;;;;;;;;4991124;28;93162;-84
2023/08/30 06:32:58;;;;;;;10.88;5.63;;;;;;;;;;4974033;28;92452;-86
2023/08/30 06:35:25;;;;;;;;;;;;;;;;;;4957423;28;94262;-83
2023/08/30 06:37:52;;;;;;;12.98;4.70;;;;;;;;;;4992248;28;94375;-83
2023/08/30 06:40:18;;;;;;;10.15;4.88;;;;;;;;;;4993509;28;91710;-81
2023/08/30 06:42:45;;;;;;;12.55;5.53;;;;;;;;;;4976111;28;94895;-83
2023/08/30 06:45:12;;;;;;;9.23;4.00;;;;;;;;;;4991224;28;92410;-81
2023/08/30 06:47:38;;;;;;;9.30;4.30;;;;;;;;;;4989180;28;94861;-83
2023/08/30 06:50:05;;;;;;;11.80;4.13;;;;;;;;;;4991817;28;94343;-82
2023/08/30 06:52:31;;;;;;;10.52;3.90;;;;;;;;;;4991723;28;92506;-82
2023/08/30 06:54:58;;;;;;;9.48;4.10;;;;;;;;;;4990752;28;92807;-84
2023/08/30 06:57:25;;;;;;;7.82;3.53;;;;;;;;;;4972428;28;95750;-83
2023/08/30 06:59:51;;;;;;;9.65;4.20;;;;;;;;;;4991858;28;92490;-83
2023/08/30 07:02:18;;;;;;;8.40;3.75;;;;;;;;;;4992631;28;93492;-80
2023/08/30 07:04:44;;;;;;;11.63;3.38;;;;;;;;;;4995934;28;92293;-82
2023/08/30 07:07:12;;;;;;;17.83;3.47;;;;;;;;;;4990910;28;92644;-80
2023/08/30 07:09:39;;;;;;;7.85;3.10;;;;;;;;;;4977984;28;93079;-80
2023/08/30 07:12:06;;;;;;;7.30;3.13;;;;;;;;;;4988238;28;95255;-79
2023/08/30 07:14:34;;;;;;;8.25;3.03;;;;;;;;;;4977252;28;92683;-80
2023/08/30 07:17:01;;;;;;;6.70;2.90;;;;;;;;;;4981963;28;93012;-80
2023/08/30 07:19:27;;;;;;;7.45;2.60;;;;;;;;;;4990218;28;92606;-80
2023/08/30 07:21:54;;;;;;;7.60;3.00;;;;;;;;;;4972422;28;96315;-80
2023/08/30 07:24:22;;;;;;;7.47;2.65;;;;;;;;;;4989744;28;94513;-81
2023/08/30 07:26:49;;;;;;;7.10;3.00;;;;;;;;;;4993072;28;92552;-81
2023/08/30 07:29:15;;;;;;;7.55;2.83;;;;;;;;;;4992381;28;92425;-81
2023/08/30 07:31:42;;;;;;;8.50;2.70;;;;;;;;;;4990795;28;93132;-79
2023/08/30 07:34:08;;;;;;;8.85;2.92;;;;;;;;;;4990616;28;92827;-80
2023/08/30 07:36:35;;;;;;;9.30;2.90;;;;;;;;;;4990554;28;96763;-81
2023/08/30 07:39:12;;;;;;;7.20;3.00;;;;;;;;;;4994204;28;92517;-81
2023/08/30 07:41:39;;;;;;;8.13;2.70;;;;;;;;;;4975484;28;92474;-81
2023/08/30 07:44:06;;;;;;;7.65;2.80;;;;;;;;;;4976153;28;93515;-80
2023/08/30 07:46:32;;;;;;;7.18;2.78;;;;;;;;;;4995206;28;93682;-81
2023/08/30 07:48:59;;;;;;;13.25;3.22;;;;;;;;;;4992354;28;93158;-82
2023/08/30 07:51:25;;;;;;;6.97;2.50;;;;;;;;;;4971974;28;92669;-82
2023/08/30 07:53:52;;;;;;;8.13;2.60;;;;;;;;;;4978854;28;92784;-82
2023/08/30 07:56:19;;;;;;;6.88;2.53;;;;;;;;;;4990083;28;93169;-83
2023/08/30 07:58:45;;;;;;;8.25;2.60;;;;;;;;;;4972463;28;93070;-84
2023/08/30 08:01:12;;;;;;;6.53;2.33;;;;;;;;;;4984671;28;94866;-84
2023/08/30 08:03:40;;;;;;;5.57;2.40;;;;;;;;;;4975198;28;94442;-85
2023/08/30 08:06:22;;;;;;;7.80;2.50;;;;;;;;;;4970922;28;92947;-83
2023/08/30 08:08:48;;;;;;;;;;;;;;;;;;4996859;28;93038;-83
2023/08/30 08:11:15;;;;;;;6.90;2.40;;;;;;;;;;4969511;28;93409;-82
2023/08/30 08:13:42;;;;;;;6.43;2.47;;;;;;;;;;4997193;28;92779;-81
2023/08/30 08:16:09;;;;;;;6.05;2.58;;;;;;;;;;4983983;28;93138;-81
2023/08/30 08:18:35;;;;;;;6.00;2.30;;;;;;;;;;4991174;28;92085;-81
2023/08/30 08:21:02;;;;;;;7.88;3.00;;;;;;;;;;4989515;28;93844;-81
2023/08/30 08:23:29;;;;;;;6.72;2.50;;;;;;;;;;4989684;28;92995;-80
2023/08/30 08:25:59;;;;;;;5.88;2.40;;;;;;;;;;4988787;28;95554;-87
2023/08/30 08:28:25;;;;;;;5.88;2.50;;;;;;;;;;4990466;28;95008;-81
2023/08/30 08:30:52;;;;;;;8.05;2.72;;;;;;;;;;4992036;28;93243;-80
2023/08/30 08:33:19;;;;;;;5.68;2.30;;;;;;;;;;4989386;28;92732;-81
2023/08/30 08:35:46;;;;;;;;;;;;;;;;;;4989745;28;93677;-81
2023/08/30 08:38:12;;;;;;;5.70;2.20;;;;;;;;;;4990520;28;92525;-81
2023/08/30 08:40:39;;;;;;;6.30;2.20;;;;;;;;;;4989426;28;93202;-80
2023/08/30 08:43:12;;;;;;;5.78;2.47;;;;;;;;;;4989593;28;92498;-82
2023/08/30 08:45:39;;;;;;;6.88;2.45;;;;;;;;;;4988688;28;92998;-81
2023/08/30 08:48:07;;;;;;;6.05;2.40;;;;;;;;;;4970386;28;93046;-81
2023/08/30 08:50:34;;;;;;;5.63;2.45;;;;;;;;;;4986786;28;96714;-81
2023/08/30 08:53:03;;;;;;;5.75;2.42;;;;;;;;;;4975439;28;92903;-81
2023/08/30 08:55:30;;;;;;;7.47;2.58;;;;;;;;;;4994440;28;94036;-81
2023/08/30 08:57:58;;;;;;;5.32;2.10;;;;;;;;;;4976348;28;92552;-81
2023/08/30 09:00:25;;;;;;;5.50;2.10;;;;;;;;;;4992382;28;92913;-81
2023/08/30 09:02:53;;;;;;;5.28;2.10;;;;;;;;;;4992803;28;93231;-80
2023/08/30 09:05:20;;;;;;;6.22;2.10;;;;;;;;;;4970546;28;92473;-80
2023/08/30 09:07:46;;;;;;;4.85;2.20;;;;;;;;;;4990807;28;93238;-80
2023/08/30 09:10:13;;;;;;;6.97;2.97;;;;;;;;;;4989312;28;93180;-81
2023/08/30 09:12:40;;;;;;;5.72;2.20;;;;;;;;;;4988987;28;92895;-80
2023/08/30 09:15:06;;;;;;;5.05;2.15;;;;;;;;;;4990019;28;94904;-80
2023/08/30 09:17:39;;;;;;;5.55;1.88;;;;;;;;;;4988274;28;92878;-79
2023/08/30 09:20:09;;;;;;;5.63;2.30;;;;;;;;;;4992017;28;93738;-80
2023/08/30 09:22:42;;;;;;;5.05;2.05;;;;;;;;;;4991925;28;93546;-79
2023/08/30 09:25:10;;;;;;;6.15;2.45;;;;;;;;;;4991979;28;92475;-80
2023/08/30 09:27:38;;;;;;;;;;;;;;;;;;4992490;28;92874;-79
2023/08/30 09:30:07;;;;;;;4.97;2.08;;;;;;;;;;4974369;28;107150;-80
2023/08/30 09:32:41;;;;;;;4.90;1.90;;;;;;;;;;4992304;28;91684;-81
2023/08/30 09:35:08;;;;;;;6.38;2.53;;;;;;;;;;4991847;28;92386;-79
2023/08/30 09:37:35;;;;;;;4.95;2.13;;;;;;;;;;4994574;28;93144;-80
2023/08/30 09:40:02;;;;;;;6.70;2.60;;;;;;;;;;4990569;28;94961;-80
2023/08/30 09:42:28;;;;;;;5.18;1.88;;;;;;;;;;4991426;28;92440;-79
2023/08/30 09:44:56;;;;;;;6.57;2.40;;;;;;;;;;4991494;28;92430;-81
2023/08/30 09:47:23;;;;;;;4.80;2.10;;;;;;;;;;4990899;28;93981;-81
2023/08/30 09:49:53;;;;;;;4.85;2.20;;;;;;;;;;4992032;28;93833;-80
2023/08/30 09:52:22;;;;;;;7.53;2.80;;;;;;;;;;4991357;28;92497;-79
2023/08/30 09:54:49;;;;;;;6.05;2.38;;;;;;;;;;4972995;28;92711;-81
2023/08/30 09:57:16;;;;;;;6.45;2.90;;;;;;;;;;4995359;28;91738;-81
2023/08/30 09:59:44;;;;;;;6.05;2.25;;;;;;;;;;4991509;28;92410;-80
2023/08/30 10:02:10;;;;;;;6.10;2.75;;;;;;;;;;4972736;28;93044;-80
2023/08/30 10:04:38;;;;;;;5.38;2.00;;;;;;;;;;4989655;28;94966;-80
2023/08/30 10:07:06;;;;;;;6.03;2.00;;;;;;;;;;4972870;28;98012;-80
2023/08/30 10:09:33;;;;;;;4.57;2.10;;;;;;;;;;4991281;28;92986;-80
2023/08/30 10:12:01;;;;;;;7.07;2.03;;;;;;;;;;4990875;28;92429;-80
2023/08/30 10:14:28;;;;;;;4.80;2.10;;;;;;;;;;4991528;28;93499;-80
2023/08/30 10:17:02;;;;;;;4.30;1.92;;;;;;;;;;4990477;28;94811;-80
2023/08/30 10:19:29;;;;;;;4.15;1.73;;;;;;;;;;4981316;28;92425;-80
2023/08/30 10:22:04;;;;;;;4.43;1.80;;;;;;;;;;4991799;28;93187;-80
2023/08/30 10:24:48;;;;;;;5.43;2.05;;;;;;;;;;4989725;28;92613;-80
2023/08/30 10:27:36;;;;;;;3.78;1.70;;;;;;;;;;4992037;28;94075;-80
2023/08/30 10:30:04;;;;;;;4.63;1.83;;;;;;;;;;4988379;28;95475;-80
2023/08/30 10:32:31;;;;;;;5.85;1.80;;;;;;;;;;4991751;28;92403;-80
2023/08/30 10:35:01;;;;;;;4.50;1.90;;;;;;;;;;4995922;28;92566;-80
2023/08/30 10:37:27;;;;;;;4.05;1.63;;;;;;;;;;4992887;28;93142;-80
2023/08/30 10:39:58;;;;;;;4.47;1.80;;;;;;;;;;4991233;28;93087;-80
2023/08/30 10:42:25;;;;;;;5.05;1.80;;;;;;;;;;4993810;28;92829;-81
2023/08/30 10:45:04;;;;;;;5.45;1.80;;;;;;;;;;4973211;28;92532;-80
2023/08/30 10:47:37;;;;;;;2.97;1.45;;;;;;;;;;4991424;28;92754;-80
2023/08/30 10:50:10;;;;;;;3.00;1.70;;;;;;;;;;4991885;28;93317;-80
2023/08/30 10:52:37;;;;;;;6.40;1.90;;;;;;;;;;4975632;28;92721;-81
2023/08/30 10:55:08;;;;;;;2.72;1.60;;;;;;;;;;4989297;28;94852;-82
2023/08/30 10:57:35;;;;;;;3.70;1.70;;;;;;;;;;4972788;28;95569;-81
2023/08/30 11:00:17;;;;;;;3.50;1.60;;;;;;;;;;4990855;28;92372;-81
2023/08/30 11:02:48;;;;;;;4.05;1.50;;;;;;;;;;4991814;28;92917;-80
2023/08/30 11:05:16;;;;;;;4.47;1.63;;;;;;;;;;4996283;28;93387;-79
2023/08/30 11:07:45;;;;;;;3.47;1.73;;;;;;;;;;4997557;28;92972;-81
2023/08/30 11:10:11;;;;;;;3.78;1.60;;;;;;;;;;4983949;28;93196;-81
2023/08/30 11:12:41;;;;;;;5.93;2.00;;;;;;;;;;4998171;28;92661;-84
2023/08/30 11:15:09;;;;;;;6.18;2.53;;;;;;;;;;4997779;28;92480;-84
2023/08/30 11:17:36;;;;;;;7.63;2.50;;;;;;;;;;4997790;28;92349;-79
2023/08/30 11:20:19;;;;;;;5.22;2.20;;;;;;;;;;4992659;28;94790;-80
2023/08/30 11:22:47;;;;;;;4.80;2.00;;;;;;;;;;4992390;28;95083;-82
2023/08/30 11:25:14;;;;;;;;;;;;;;;;;;4994605;28;93013;-82
2023/08/30 11:27:41;;;;;;;7.05;1.75;;;;;;;;;;5000400;28;92947;-82
2023/08/30 11:30:08;;;;;;;5.47;1.77;;;;;;;;;;4991182;28;92655;-81
2023/08/30 11:32:35;;;;;;;7.97;2.20;;;;;;;;;;4979246;28;92438;-84
2023/08/30 11:35:02;;;;;;;8.20;1.85;;;;;;;;;;4996918;28;92993;-85
2023/08/30 11:37:29;;;;;;;8.07;1.90;;;;;;;;;;4995930;28;91734;-86
2023/08/30 11:39:56;;;;;;;6.72;2.00;;;;;;;;;;4996336;28;92785;-85
2023/08/30 11:42:23;;;;;;;5.35;1.80;;;;;;;;;;4976033;28;93150;-85
2023/08/30 11:44:50;;;;;;;6.43;2.05;;;;;;;;;;4994270;28;95286;-85
2023/08/30 11:47:20;;;;;;;8.50;2.22;;;;;;;;;;4992961;28;92399;-85
2023/08/30 11:49:48;;;;;;;6.15;2.10;;;;;;;;;;4973822;28;96189;-84
2023/08/30 11:52:15;;;;;;;9.50;2.30;;;;;;;;;;4971642;28;92881;-85
2023/08/30 11:54:41;;;;;;;6.38;1.73;;;;;;;;;;4971944;28;92903;-84
2023/08/30 11:57:08;;;;;;;6.63;2.25;;;;;;;;;;4971287;28;93002;-84
2023/08/30 11:59:35;;;;;;;8.43;2.38;;;;;;;;;;4989756;28;92561;-84
2023/08/30 12:02:03;;;;;;;11.52;2.53;;;;;;;;;;4970503;28;93387;-84
2023/08/30 12:04:39;;;;;;;8.73;2.38;;;;;;;;;;4988427;28;94026;-84
2023/08/30 12:07:05;;;;;;;8.52;2.45;;;;;;;;;;4988796;28;92568;-84
2023/08/30 12:09:32;;;;;;;6.55;2.30;;;;;;;;;;4972546;28;95547;-84
2023/08/30 12:12:12;;;;;;;8.63;2.03;;;;;;;;;;4989313;28;93015;-85
2023/08/30 12:14:39;;;;;;;8.30;2.50;;;;;;;;;;4989548;28;93026;-84
2023/08/30 12:17:12;;;;;;;10.48;2.30;;;;;;;;;;4988548;28;93211;-84
2023/08/30 12:19:42;;;;;;;9.30;2.28;;;;;;;;;;4976587;28;93302;-83
2023/08/30 12:22:12;;;;;;;8.07;2.30;;;;;;;;;;4989494;28;92737;-84
2023/08/30 12:24:45;;;;;;;7.55;2.03;;;;;;;;;;4988097;28;93087;-84
2023/08/30 12:27:11;;;;;;;;;;;;;;;;;;4991204;28;91682;-88
2023/08/30 12:29:38;;;;;;;7.32;1.80;;;;;;;;;;4979590;28;92457;-89
2023/08/30 12:32:05;;;;;;;9.25;2.10;;;;;;;;;;4966167;28;96126;-88
2023/08/30 12:34:32;;;;;;;9.88;2.10;;;;;;;;;;4986425;28;94873;-86
2023/08/30 12:36:58;;;;;;;9.40;2.20;;;;;;;;;;4971722;28;97261;-89
2023/08/30 12:39:29;;;;;;;8.93;2.40;;;;;;;;;;4992060;28;92618;-83
2023/08/30 12:41:56;;;;;;;7.85;2.30;;;;;;;;;;4972300;28;96187;-85
2023/08/30 12:44:23;;;;;;;8.82;2.03;;;;;;;;;;4971619;28;93182;-85
2023/08/30 12:46:49;;;;;;;8.25;2.13;;;;;;;;;;4991476;28;92511;-84
2023/08/30 12:49:16;;;;;;;8.75;1.90;;;;;;;;;;4992993;28;94541;-85
2023/08/30 12:51:43;;;;;;;8.60;2.38;;;;;;;;;;4992316;28;94541;-85
2023/08/30 12:54:09;;;;;;;8.35;2.10;;;;;;;;;;5003171;28;92423;-87
2023/08/30 12:56:36;;;;;;;8.30;2.10;;;;;;;;;;4991164;28;94809;-86
2023/08/30 12:59:03;;;;;;;7.70;2.00;;;;;;;;;;5010685;28;94788;-84
2023/08/30 13:01:29;;;;;;;7.07;1.77;;;;;;;;;;5005878;28;94668;-85
2023/08/30 13:03:56;;;;;;;8.45;2.05;;;;;;;;;;5001777;28;92521;-85
2023/08/30 13:06:23;;;;;;;8.73;2.17;;;;;;;;;;4989414;28;92439;-85
2023/08/30 13:08:50;;;;;;;6.30;1.70;;;;;;;;;;4995124;28;92663;-85
2023/08/30 13:11:17;;;;;;;6.20;1.58;;;;;;;;;;4993078;28;93448;-85
2023/08/30 13:13:43;;;;;;;5.95;1.90;;;;;;;;;;4986421;28;92717;-83
2023/08/30 13:16:10;;;;;;;9.18;1.70;;;;;;;;;;4978217;28;97455;-84
2023/08/30 13:18:36;;;;;;;6.65;2.00;;;;;;;;;;4980601;28;93111;-84
2023/08/30 13:21:04;;;;;;;9.02;2.10;;;;;;;;;;4990809;28;93048;-83
2023/08/30 13:23:30;;;;;;;7.13;1.70;;;;;;;;;;4984872;28;95600;-84
2023/08/30 13:25:57;;;;;;;10.73;1.90;;;;;;;;;;4979358;28;96066;-83
2023/08/30 13:28:24;;;;;;;7.97;2.00;;;;;;;;;;4991255;28;93834;-84
2023/08/30 13:30:51;;;;;;;9.13;1.98;;;;;;;;;;4991011;28;94796;-84
2023/08/30 13:33:18;;;;;;;8.10;1.80;;;;;;;;;;4977090;28;92939;-84
2023/08/30 13:35:45;;;;;;;;;;;;;;;;;;4985357;28;93024;-83
2023/08/30 13:38:11;;;;;;;6.18;1.80;;;;;;;;;;4979727;28;107209;-84
2023/08/30 13:40:38;;;;;;;5.60;1.70;;;;;;;;;;4977347;28;96520;-86
2023/08/30 13:43:06;;;;;;;5.75;1.67;;;;;;;;;;4968783;28;94288;-85
2023/08/30 13:45:34;;;;;;;7.88;1.95;;;;;;;;;;4982573;28;92777;-85
2023/08/30 13:48:01;;;;;;;7.28;1.83;;;;;;;;;;4976160;28;95536;-85
2023/08/30 13:50:30;;;;;;;7.15;1.80;;;;;;;;;;4993952;28;93074;-85
2023/08/30 13:52:57;;;;;;;9.02;1.77;;;;;;;;;;4982963;28;92503;-84
2023/08/30 13:55:24;;;;;;;;;;;;;;;;;;4992747;28;92810;-84
2023/08/30 13:57:51;;;;;;;7.50;1.70;;;;;;;;;;4992597;28;93529;-82
2023/08/30 14:00:18;;;;;;;6.85;1.83;;;;;;;;;;4975079;28;92573;-84
2023/08/30 14:02:44;;;;;;;5.80;1.83;;;;;;;;;;4979657;28;92742;-84
2023/08/30 14:05:11;;;;;;;6.00;1.80;;;;;;;;;;4984837;28;92431;-84
2023/08/30 14:07:38;;;;;;;7.22;1.88;;;;;;;;;;4988829;28;92923;-83
2023/08/30 14:10:05;;;;;;;7.47;1.80;;;;;;;;;;4990709;28;93094;-83
2023/08/30 14:12:33;;;;;;;7.03;1.63;;;;;;;;;;4988946;28;95129;-83
2023/08/30 14:14:59;;;;;;;4.38;1.55;;;;;;;;;;4983319;28;95086;-82
2023/08/30 14:17:26;;;;;;;8.02;1.60;;;;;;;;;;4990569;28;95117;-83
2023/08/30 14:19:53;;;;;;;5.78;1.58;;;;;;;;;;4994973;28;92467;-82
2023/08/30 14:22:19;;;;;;;3.15;1.50;;;;;;;;;;4989967;28;93859;-84
2023/08/30 14:24:46;;;;;;;4.60;1.45;;;;;;;;;;4975487;28;92530;-84
2023/08/30 14:27:28;;;;;;;6.53;1.60;;;;;;;;;;4992824;28;93636;-84
2023/08/30 14:29:55;;;;;;;6.30;1.40;;;;;;;;;;4983940;28;93437;-85
2023/08/30 14:32:23;;;;;;;6.03;1.77;;;;;;;;;;4994436;28;92622;-83
2023/08/30 14:34:49;;;;;;;6.25;1.60;;;;;;;;;;4986674;28;93169;-84
2023/08/30 14:37:16;;;;;;;4.82;1.73;;;;;;;;;;4992888;28;95598;-84
2023/08/30 14:39:43;;;;;;;4.95;1.60;;;;;;;;;;4976964;28;92868;-85
2023/08/30 14:42:09;;;;;;;4.70;1.50;;;;;;;;;;4995491;28;92910;-85
2023/08/30 14:44:36;;;;;;;6.47;1.63;;;;;;;;;;4990201;28;93105;-84
2023/08/30 14:47:02;;;;;;;5.30;1.55;;;;;;;;;;4975912;28;95494;-83